createdAt,value
2019-02-19T00:00:33.620Z,3.10
2019-02-19T00:03:37.902Z,3.10
2019-02-19T00:06:42.278Z,3.10
2019-02-19T00:09:46.618Z,3.10
2019-02-19T00:12:50.928Z,3.10
2019-02-19T00:15:55.295Z,3.10
2019-02-19T00:18:59.585Z,3.00
2019-02-19T00:22:04.073Z,3.00
2019-02-19T00:25:08.387Z,3.00
2019-02-19T00:28:12.757Z,3.00
2019-02-19T00:31:17.137Z,3.00
2019-02-19T00:34:21.420Z,2.90
2019-02-19T00:37:25.734Z,2.90
2019-02-19T00:40:30.070Z,2.90
2019-02-19T00:43:34.457Z,2.90
2019-02-19T00:46:38.849Z,2.90
2019-02-19T00:49:43.245Z,2.80
2019-02-19T00:52:47.541Z,2.80
2019-02-19T00:55:51.936Z,2.80
2019-02-19T00:58:58.549Z,2.80
2019-02-19T01:02:03.015Z,2.80
2019-02-19T01:05:07.508Z,2.80
2019-02-19T01:08:12.138Z,2.80
2019-02-19T01:11:16.501Z,2.70
2019-02-19T01:14:20.877Z,2.70
2019-02-19T01:17:25.191Z,2.70
2019-02-19T01:20:30.421Z,2.70
2019-02-19T01:23:34.805Z,2.70
2019-02-19T01:26:39.216Z,2.70
2019-02-19T01:29:43.583Z,2.70
2019-02-19T01:32:47.968Z,2.60
2019-02-19T01:35:52.264Z,2.60
2019-02-19T01:38:56.540Z,2.60
2019-02-19T01:42:00.894Z,2.60
2019-02-19T01:45:05.651Z,2.60
2019-02-19T01:48:09.928Z,2.60
2019-02-19T01:51:14.224Z,2.50
2019-02-19T01:54:18.518Z,2.60
2019-02-19T01:57:22.892Z,2.50
2019-02-19T02:00:27.181Z,2.50
2019-02-19T02:03:31.495Z,2.50
2019-02-19T02:06:35.699Z,2.50
2019-02-19T02:09:40.094Z,2.50
2019-02-19T02:12:44.407Z,2.50
2019-02-19T02:15:48.725Z,2.40
2019-02-19T02:18:52.994Z,2.50
2019-02-19T02:21:57.360Z,2.40
2019-02-19T02:25:01.702Z,2.40
2019-02-19T02:28:05.991Z,2.40
2019-02-19T02:31:10.287Z,2.40
2019-02-19T02:34:14.593Z,2.40
2019-02-19T02:37:18.896Z,2.40
2019-02-19T02:40:23.297Z,2.40
2019-02-19T02:43:27.680Z,2.30
2019-02-19T02:46:32.068Z,2.30
2019-02-19T02:49:36.347Z,2.30
2019-02-19T02:52:40.760Z,2.30
2019-02-19T02:55:45.111Z,2.30
2019-02-19T02:58:49.426Z,2.30
2019-02-19T03:01:53.708Z,2.20
2019-02-19T03:04:58.012Z,2.20
2019-02-19T03:08:06.091Z,2.20
2019-02-19T03:11:10.483Z,2.20
2019-02-19T03:14:14.889Z,2.20
2019-02-19T03:17:19.316Z,2.20
2019-02-19T03:20:23.591Z,2.20
2019-02-19T03:23:27.893Z,2.10
2019-02-19T03:26:32.251Z,2.20
2019-02-19T03:29:36.570Z,2.10
2019-02-19T03:32:40.941Z,2.10
2019-02-19T03:35:45.311Z,2.10
2019-02-19T03:38:49.661Z,2.00
2019-02-19T03:41:53.975Z,2.00
2019-02-19T03:44:58.328Z,2.00
2019-02-19T03:48:02.620Z,2.00
2019-02-19T03:51:06.900Z,2.00
2019-02-19T03:54:11.195Z,2.00
2019-02-19T03:57:15.481Z,2.00
2019-02-19T04:00:19.713Z,1.90
2019-02-19T04:03:24.102Z,1.90
2019-02-19T04:06:28.481Z,1.90
2019-02-19T04:09:32.789Z,1.90
2019-02-19T04:12:37.171Z,1.90
2019-02-19T04:15:41.643Z,1.90
2019-02-19T04:18:45.946Z,1.90
2019-02-19T04:21:50.292Z,1.80
2019-02-19T04:24:54.597Z,1.80
2019-02-19T04:27:58.905Z,1.80
2019-02-19T04:31:03.475Z,1.80
2019-02-19T04:34:07.746Z,1.80
2019-02-19T04:37:12.123Z,1.70
2019-02-19T04:40:16.404Z,1.70
2019-02-19T04:43:20.800Z,1.70
2019-02-19T04:46:31.463Z,1.70
2019-02-19T04:49:31.157Z,1.70
2019-02-19T04:52:35.563Z,1.70
2019-02-19T04:55:39.875Z,1.70
2019-02-19T04:58:44.153Z,1.70
2019-02-19T05:01:48.542Z,1.70
2019-02-19T05:04:52.902Z,1.70
2019-02-19T05:07:57.255Z,1.60
2019-02-19T05:11:01.608Z,1.60
2019-02-19T05:14:06.016Z,1.60
2019-02-19T05:17:10.442Z,1.60
2019-02-19T05:20:14.826Z,1.60
2019-02-19T05:23:19.153Z,1.60
2019-02-19T05:26:23.527Z,1.60
2019-02-19T05:29:27.800Z,1.60
2019-02-19T05:32:32.032Z,1.60
2019-02-19T05:35:36.312Z,1.60
2019-02-19T05:38:40.682Z,1.60
2019-02-19T05:41:45.050Z,1.60
2019-02-19T05:44:49.515Z,1.60
2019-02-19T05:47:53.857Z,1.60
2019-02-19T05:50:58.096Z,1.60
2019-02-19T05:54:02.376Z,1.60
2019-02-19T05:57:06.765Z,1.60
2019-02-19T06:00:12.061Z,1.60
2019-02-19T06:03:17.157Z,1.60
2019-02-19T06:06:21.515Z,1.60
2019-02-19T06:09:25.903Z,1.60
2019-02-19T06:12:30.241Z,1.60
2019-02-19T06:15:34.563Z,1.60
2019-02-19T06:18:38.848Z,1.60
2019-02-19T06:21:43.231Z,1.60
2019-02-19T06:24:47.933Z,1.60
2019-02-19T06:27:52.302Z,1.60
2019-02-19T06:30:56.662Z,1.60
2019-02-19T06:34:01.215Z,1.60
2019-02-19T06:37:05.547Z,1.60
2019-02-19T06:40:19.347Z,1.70
2019-02-19T06:43:23.648Z,1.70
2019-02-19T06:46:27.992Z,1.70
2019-02-19T06:49:32.264Z,1.70
2019-02-19T06:52:36.577Z,1.80
2019-02-19T06:55:40.848Z,1.80
2019-02-19T06:58:45.160Z,1.80
2019-02-19T07:02:03.993Z,1.80
2019-02-19T07:05:12.399Z,1.90
2019-02-19T07:08:16.692Z,1.90
2019-02-19T07:11:21.031Z,1.90
2019-02-19T07:14:25.320Z,2.00
2019-02-19T07:17:29.716Z,2.00
2019-02-19T07:20:34.135Z,2.00
2019-02-19T07:23:38.504Z,2.10
2019-02-19T07:26:42.776Z,2.10
2019-02-19T07:29:47.128Z,2.20
2019-02-19T07:32:51.481Z,2.20
2019-02-19T07:35:55.916Z,2.30
2019-02-19T07:39:00.184Z,2.30
2019-02-19T07:42:04.491Z,2.40
2019-02-19T07:45:09.276Z,2.40
2019-02-19T07:48:13.586Z,2.50
2019-02-19T07:51:17.885Z,2.50
2019-02-19T07:54:22.253Z,2.60
2019-02-19T07:57:26.526Z,2.70
2019-02-19T08:00:30.914Z,2.70
2019-02-19T08:03:35.268Z,2.80
2019-02-19T08:06:39.658Z,2.80
2019-02-19T08:09:43.930Z,2.90
2019-02-19T08:12:48.658Z,2.90
2019-02-19T08:15:53.003Z,3.00
2019-02-19T08:18:57.384Z,3.10
2019-02-19T08:22:01.662Z,3.10
2019-02-19T08:25:06.205Z,3.20
2019-02-19T08:28:10.473Z,3.30
2019-02-19T08:31:14.785Z,3.40
2019-02-19T08:34:19.136Z,3.40
2019-02-19T08:37:23.974Z,3.50
2019-02-19T08:40:28.321Z,3.60
2019-02-19T08:43:32.631Z,3.60
2019-02-19T08:46:36.895Z,3.70
2019-02-19T08:49:41.224Z,3.80
2019-02-19T08:52:45.567Z,3.90
2019-02-19T08:55:50.400Z,4.00
2019-02-19T08:58:54.755Z,4.00
2019-02-19T09:01:59.155Z,4.10
2019-02-19T09:05:03.502Z,4.20
2019-02-19T09:08:07.890Z,4.30
2019-02-19T09:11:12.172Z,4.40
2019-02-19T09:14:16.545Z,4.50
2019-02-19T09:17:20.852Z,4.60
2019-02-19T09:20:25.244Z,4.70
2019-02-19T09:23:29.532Z,4.80
2019-02-19T09:26:33.904Z,5.00
2019-02-19T09:29:38.171Z,5.10
2019-02-19T09:32:42.485Z,5.30
2019-02-19T09:35:46.755Z,5.40
2019-02-19T09:38:51.131Z,5.60
2019-02-19T09:41:55.485Z,5.70
2019-02-19T09:44:59.900Z,5.90
2019-02-19T09:48:04.270Z,6.00
2019-02-19T09:51:08.660Z,6.20
2019-02-19T09:54:12.941Z,6.40
2019-02-19T09:57:17.240Z,6.60
2019-02-19T10:00:21.519Z,6.80
2019-02-19T10:03:25.840Z,7.00
2019-02-19T10:06:30.180Z,7.20
2019-02-19T10:09:34.603Z,7.40
2019-02-19T10:12:38.956Z,7.60
2019-02-19T10:15:43.263Z,7.80
2019-02-19T10:18:47.631Z,8.00
2019-02-19T10:21:51.952Z,8.10
2019-02-19T10:24:56.309Z,8.30
2019-02-19T10:28:00.609Z,8.40
2019-02-19T10:31:04.877Z,8.60
2019-02-19T10:34:09.282Z,8.80
2019-02-19T10:37:13.648Z,9.00
2019-02-19T10:40:18.097Z,9.20
2019-02-19T10:43:23.533Z,9.40
2019-02-19T10:46:28.023Z,9.60
2019-02-19T10:49:32.360Z,9.80
2019-02-19T10:52:36.736Z,9.90
2019-02-19T10:55:41.015Z,10.10
2019-02-19T10:58:45.391Z,10.30
2019-02-19T11:01:49.689Z,10.40
2019-02-19T11:04:54.068Z,10.60
2019-02-19T11:07:58.433Z,10.80
2019-02-19T11:11:03.056Z,10.90
2019-02-19T11:14:07.265Z,11.10
2019-02-19T11:17:11.576Z,11.20
2019-02-19T11:20:15.888Z,11.40
2019-02-19T11:23:20.196Z,11.50
2019-02-19T11:26:24.482Z,11.70
2019-02-19T11:29:28.877Z,11.90
2019-02-19T11:32:33.222Z,12.10
2019-02-19T11:35:37.540Z,12.30
2019-02-19T11:38:41.832Z,12.50
2019-02-19T11:41:46.588Z,12.60
2019-02-19T11:44:50.948Z,12.80
2019-02-19T11:47:55.340Z,12.90
2019-02-19T11:50:59.674Z,13.10
2019-02-19T11:54:04.079Z,13.20
2019-02-19T11:57:08.389Z,13.30
2019-02-19T12:00:16.339Z,13.50
2019-02-19T12:03:20.617Z,13.60
2019-02-19T12:06:24.919Z,13.70
2019-02-19T12:09:29.198Z,13.80
2019-02-19T12:12:33.576Z,13.90
2019-02-19T12:15:37.854Z,14.00
2019-02-19T12:18:46.117Z,14.10
2019-02-19T12:21:48.143Z,14.20
2019-02-19T12:24:52.462Z,14.30
2019-02-19T12:27:56.740Z,14.40
2019-02-19T12:31:01.048Z,14.50
2019-02-19T12:34:05.333Z,14.60
2019-02-19T12:37:09.711Z,14.70
2019-02-19T12:40:14.165Z,14.80
2019-02-19T12:43:19.283Z,14.80
2019-02-19T12:46:23.631Z,14.90
2019-02-19T12:49:27.944Z,15.00
2019-02-19T12:52:32.348Z,15.00
2019-02-19T12:55:36.817Z,15.10
2019-02-19T12:58:41.101Z,15.10
2019-02-19T13:01:45.501Z,15.20
2019-02-19T13:04:49.883Z,15.20
2019-02-19T13:07:54.263Z,15.30
2019-02-19T13:10:58.674Z,15.30
2019-02-19T13:14:03.055Z,15.40
2019-02-19T13:17:07.424Z,15.40
2019-02-19T13:20:13.260Z,15.40
2019-02-19T13:23:17.531Z,15.40
2019-02-19T13:26:21.851Z,15.50
2019-02-19T13:29:26.133Z,15.50
2019-02-19T13:32:30.525Z,15.40
2019-02-19T13:35:34.882Z,15.40
2019-02-19T13:38:39.642Z,15.40
2019-02-19T13:41:44.041Z,15.40
2019-02-19T13:44:48.441Z,15.30
2019-02-19T13:47:52.731Z,15.30
2019-02-19T13:50:57.048Z,15.30
2019-02-19T13:54:26.471Z,15.30
2019-02-19T13:57:31.074Z,15.30
2019-02-19T14:00:38.207Z,15.20
2019-02-19T14:03:42.615Z,15.20
2019-02-19T14:06:46.955Z,15.20
2019-02-19T14:09:51.339Z,15.20
2019-02-19T14:12:55.625Z,15.10
2019-02-19T14:16:09.260Z,15.10
2019-02-19T14:19:21.323Z,15.10
2019-02-19T14:22:57.232Z,15.00
2019-02-19T14:26:19.376Z,15.00
2019-02-19T14:29:41.383Z,14.90
2019-02-19T14:33:11.944Z,14.90
2019-02-19T14:36:41.091Z,14.80
2019-02-19T14:40:10.549Z,14.70
2019-02-19T14:43:36.565Z,14.70
2019-02-19T14:46:59.837Z,14.60
2019-02-19T14:50:22.452Z,14.50
2019-02-19T14:53:51.598Z,14.40
2019-02-19T14:57:20.977Z,14.30
2019-02-19T15:00:47.010Z,14.30
2019-02-19T15:04:25.837Z,14.20
2019-02-19T15:07:35.513Z,14.10
2019-02-19T15:10:58.889Z,14.10
2019-02-19T15:14:24.843Z,14.00
2019-02-19T15:17:48.261Z,13.90
2019-02-19T15:21:16.313Z,13.80
2019-02-19T15:24:48.673Z,13.70
2019-02-19T15:28:06.989Z,13.50
2019-02-19T15:31:28.912Z,13.30
2019-02-19T15:34:58.329Z,13.10
2019-02-19T15:38:13.557Z,13.00
2019-02-19T15:41:51.883Z,12.80
2019-02-19T15:45:09.223Z,12.60
2019-02-19T15:48:46.020Z,12.40
2019-02-19T15:52:09.315Z,12.20
2019-02-19T15:55:32.383Z,12.00
2019-02-19T15:58:53.167Z,11.80
2019-02-19T16:02:22.561Z,11.60
2019-02-19T16:05:58.669Z,11.40
2019-02-19T16:09:13.633Z,11.20
2019-02-19T16:12:36.368Z,11.10
2019-02-19T16:15:58.275Z,11.00
2019-02-19T16:19:13.743Z,10.80
2019-02-19T16:22:39.765Z,10.70
2019-02-19T16:26:15.296Z,10.60
2019-02-19T16:29:33.931Z,10.40
2019-02-19T16:32:44.629Z,10.30
2019-02-19T16:36:07.969Z,10.10
2019-02-19T16:39:31.599Z,10.00
2019-02-19T16:42:52.121Z,9.90
2019-02-19T16:46:18.320Z,9.80
2019-02-19T16:49:40.302Z,9.60
2019-02-19T16:53:06.411Z,9.50
2019-02-19T16:56:16.883Z,9.40
2019-02-19T16:59:52.614Z,9.30
2019-02-19T17:03:15.929Z,9.20
2019-02-19T17:06:38.065Z,9.10
2019-02-19T17:09:53.036Z,9.00
2019-02-19T17:13:23.391Z,8.90
2019-02-19T17:16:53.453Z,8.80
2019-02-19T17:20:04.847Z,8.70
2019-02-19T17:23:17.905Z,8.60
2019-02-19T17:26:41.933Z,8.60
2019-02-19T17:30:04.360Z,8.50
2019-02-19T17:33:26.102Z,8.40
2019-02-19T17:36:48.077Z,8.30
2019-02-19T17:40:17.273Z,8.30
2019-02-19T17:43:39.569Z,8.20
2019-02-19T17:46:57.309Z,8.10
2019-02-19T17:50:19.361Z,8.00
2019-02-19T17:53:52.220Z,8.00
2019-02-19T17:57:19.911Z,7.90
2019-02-19T18:00:42.259Z,7.80
2019-02-19T18:03:58.815Z,7.80
2019-02-19T18:07:22.061Z,7.70
2019-02-19T18:10:48.315Z,7.70
2019-02-19T18:14:11.624Z,7.60
2019-02-19T18:17:37.633Z,7.60
2019-02-19T18:20:47.453Z,7.50
2019-02-19T18:23:48.088Z,7.40
2019-02-19T18:26:52.514Z,7.40
2019-02-19T18:29:56.875Z,7.30
2019-02-19T18:33:01.340Z,7.30
2019-02-19T18:36:05.842Z,7.20
2019-02-19T18:39:10.271Z,7.20
2019-02-19T18:42:14.617Z,7.10
2019-02-19T18:45:19.087Z,7.00
2019-02-19T18:48:23.376Z,6.90
2019-02-19T18:51:27.881Z,6.90
2019-02-19T18:54:32.260Z,6.80
2019-02-19T18:57:36.705Z,6.70
2019-02-19T19:00:41.077Z,6.70
2019-02-19T19:03:47.605Z,6.70
2019-02-19T19:06:51.981Z,6.70
2019-02-19T19:09:56.427Z,6.70
2019-02-19T19:13:00.900Z,6.60
2019-02-19T19:16:05.903Z,6.70
2019-02-19T19:19:10.199Z,6.60
2019-02-19T19:22:14.616Z,6.60
2019-02-19T19:25:19.039Z,6.60
2019-02-19T19:28:23.716Z,6.50
2019-02-19T19:31:33.626Z,6.50
2019-02-19T19:34:34.207Z,6.50
2019-02-19T19:37:38.592Z,6.50
2019-02-19T19:40:43.022Z,6.40
2019-02-19T19:43:47.437Z,6.40
2019-02-19T19:46:51.921Z,6.40
2019-02-19T19:49:56.293Z,6.40
2019-02-19T19:53:00.688Z,6.30
2019-02-19T19:56:05.083Z,6.30
2019-02-19T19:59:09.530Z,6.30
2019-02-19T20:02:13.907Z,6.10
2019-02-19T20:05:18.718Z,6.00
2019-02-19T20:08:23.329Z,5.90
2019-02-19T20:11:28.094Z,5.90
2019-02-19T20:14:32.889Z,5.80
2019-02-19T20:17:39.985Z,5.80
2019-02-19T20:20:48.360Z,5.70
2019-02-19T20:24:02.607Z,5.80
2019-02-19T20:27:07.600Z,5.80
2019-02-19T20:30:12.638Z,5.80
2019-02-19T20:33:19.482Z,5.80
2019-02-19T20:36:24.404Z,5.80
2019-02-19T20:39:28.897Z,5.80
2019-02-19T20:42:33.257Z,5.80
2019-02-19T20:45:37.789Z,5.80
2019-02-19T20:48:42.270Z,5.80
2019-02-19T20:51:46.653Z,5.70
2019-02-19T20:54:51.108Z,5.70
2019-02-19T20:57:55.720Z,5.80
2019-02-19T21:01:00.126Z,5.80
2019-02-19T21:04:04.588Z,5.90
2019-02-19T21:07:09.072Z,5.90
2019-02-19T21:10:15.239Z,5.80
2019-02-19T21:13:19.716Z,5.90
2019-02-19T21:16:24.139Z,5.90
2019-02-19T21:19:28.561Z,5.90
2019-02-19T21:22:33.024Z,5.90
2019-02-19T21:25:37.448Z,5.90
2019-02-19T21:28:42.017Z,6.00
2019-02-19T21:31:46.473Z,6.10
2019-02-19T21:34:50.956Z,6.10
2019-02-19T21:37:55.591Z,6.10
2019-02-19T21:41:00.025Z,6.20
2019-02-19T21:44:04.433Z,6.20
2019-02-19T21:47:08.779Z,6.30
2019-02-19T21:50:15.415Z,6.30
2019-02-19T21:53:19.246Z,6.30
2019-02-19T21:56:23.950Z,6.20
2019-02-19T21:59:28.328Z,6.30
2019-02-19T22:02:32.706Z,6.30
2019-02-19T22:05:37.069Z,6.40
2019-02-19T22:08:41.385Z,6.50
2019-02-19T22:11:45.732Z,6.50
2019-02-19T22:14:50.102Z,6.50
2019-02-19T22:17:54.559Z,6.50
2019-02-19T22:21:04.126Z,6.50
2019-02-19T22:24:08.577Z,6.50
2019-02-19T22:27:12.980Z,6.50
2019-02-19T22:30:17.436Z,6.40
2019-02-19T22:33:21.965Z,6.30
2019-02-19T22:36:26.416Z,6.30
2019-02-19T22:39:30.722Z,6.20
2019-02-19T22:42:50.170Z,6.10
2019-02-19T22:45:54.536Z,6.20
2019-02-19T22:48:58.813Z,6.20
2019-02-19T22:52:11.932Z,6.20
2019-02-19T22:55:21.599Z,6.20
2019-02-19T22:58:25.914Z,6.00
2019-02-19T23:01:33.259Z,6.00
2019-02-19T23:04:37.669Z,5.90
2019-02-19T23:07:42.033Z,5.90
2019-02-19T23:10:46.550Z,5.90
2019-02-19T23:13:50.928Z,5.90
2019-02-19T23:16:55.249Z,5.90
2019-02-19T23:19:59.517Z,5.90
2019-02-19T23:23:03.893Z,5.90
2019-02-19T23:26:08.170Z,5.90
2019-02-19T23:29:12.505Z,5.90
2019-02-19T23:32:16.877Z,5.90
2019-02-19T23:35:32.002Z,6.00
2019-02-19T23:38:36.269Z,5.90
2019-02-19T23:41:40.647Z,5.70
2019-02-19T23:44:44.937Z,5.70
2019-02-19T23:47:49.154Z,5.70
2019-02-19T23:50:53.416Z,5.80
2019-02-19T23:53:57.717Z,5.80
2019-02-19T23:57:01.984Z,5.80
